createdAt,value
2022-08-06T00:00:15.226Z,2.40
2022-08-06T00:02:42.052Z,3.05
2022-08-06T00:05:08.794Z,3.55
2022-08-06T00:07:47.546Z,3.58
2022-08-06T00:10:16.221Z,2.63
2022-08-06T00:12:42.557Z,3.53
2022-08-06T00:15:13.602Z,4.55
2022-08-06T00:17:41.378Z,4.28
2022-08-06T00:20:07.971Z,3.90
2022-08-06T00:22:37.345Z,3.72
2022-08-06T00:25:03.884Z,3.47
2022-08-06T00:27:38.861Z,4.40
2022-08-06T00:30:18.273Z,4.70
2022-08-06T00:32:51.632Z,4.60
2022-08-06T00:35:19.565Z,3.58
2022-08-06T00:37:55.156Z,2.42
2022-08-06T00:40:26.005Z,2.28
2022-08-06T00:42:55.870Z,2.78
2022-08-06T00:45:24.141Z,3.08
2022-08-06T00:48:02.755Z,3.53
2022-08-06T00:50:31.199Z,3.42
2022-08-06T00:52:57.624Z,4.40
2022-08-06T00:55:32.215Z,2.47
2022-08-06T00:58:02.536Z,3.05
2022-08-06T01:00:30.939Z,2.58
2022-08-06T01:02:57.589Z,1.83
2022-08-06T01:06:04.208Z,3.95
2022-08-06T01:08:10.807Z,3.72
2022-08-06T01:10:42.192Z,4.65
2022-08-06T01:13:25.688Z,2.97
2022-08-06T01:16:08.498Z,1.92
2022-08-06T01:18:42.114Z,2.78
2022-08-06T01:21:58.142Z,3.35
2022-08-06T01:24:24.061Z,4.30
2022-08-06T01:26:54.271Z,2.67
2022-08-06T01:29:27.185Z,1.92
2022-08-06T01:32:10.134Z,4.57
2022-08-06T01:34:39.198Z,2.65
2022-08-06T01:37:12.548Z,2.35
2022-08-06T01:40:02.167Z,2.85
2022-08-06T01:42:34.826Z,3.42
2022-08-06T01:45:05.628Z,3.72
2022-08-06T01:47:54.018Z,3.33
2022-08-06T01:50:28.140Z,3.95
2022-08-06T01:52:59.474Z,1.77
2022-08-06T01:55:42.542Z,3.70
2022-08-06T01:58:26.719Z,3.00
2022-08-06T02:00:55.357Z,2.67
2022-08-06T02:03:39.071Z,2.72
2022-08-06T02:06:36.867Z,3.35
2022-08-06T02:09:23.070Z,3.60
2022-08-06T02:12:02.917Z,2.80
2022-08-06T02:14:33.256Z,4.72
2022-08-06T02:17:13.823Z,2.08
2022-08-06T02:19:59.798Z,2.95
2022-08-06T02:22:32.361Z,5.70
2022-08-06T02:25:02.439Z,3.05
2022-08-06T02:27:43.331Z,4.60
2022-08-06T02:30:16.683Z,4.25
2022-08-06T02:32:45.384Z,3.67
2022-08-06T02:35:12.662Z,2.47
2022-08-06T02:38:01.332Z,2.97
2022-08-06T02:40:33.997Z,2.88
2022-08-06T02:43:09.600Z,4.03
2022-08-06T02:45:58.248Z,3.45
2022-08-06T02:48:32.806Z,3.65
2022-08-06T02:51:00.229Z,2.20
2022-08-06T02:53:44.874Z,1.67
2022-08-06T02:56:18.748Z,4.50
2022-08-06T02:58:58.016Z,1.83
2022-08-06T03:01:39.062Z,1.90
2022-08-06T03:04:09.917Z,2.80
2022-08-06T03:06:37.213Z,1.60
2022-08-06T03:09:05.599Z,1.90
2022-08-06T03:11:34.467Z,3.72
2022-08-06T03:14:32.032Z,3.95
2022-08-06T03:16:51.142Z,1.98
2022-08-06T03:19:55.467Z,2.47
2022-08-06T03:22:06.286Z,3.22
2022-08-06T03:24:38.630Z,3.78
2022-08-06T03:27:09.475Z,4.95
2022-08-06T03:29:36.680Z,2.75
2022-08-06T03:32:13.634Z,1.65
2022-08-06T03:34:52.331Z,3.80
2022-08-06T03:37:19.790Z,2.75
2022-08-06T03:39:53.578Z,2.92
2022-08-06T03:42:20.277Z,2.33
2022-08-06T03:44:47.047Z,2.58
2022-08-06T03:47:30.723Z,1.70
2022-08-06T03:50:16.012Z,3.15
2022-08-06T03:52:51.170Z,2.03
2022-08-06T03:55:23.059Z,2.20
2022-08-06T03:57:50.582Z,2.60
2022-08-06T04:00:18.010Z,2.35
2022-08-06T04:02:56.352Z,3.08
2022-08-06T04:05:24.548Z,3.00
2022-08-06T04:07:56.247Z,3.58
2022-08-06T04:10:34.174Z,5.00
2022-08-06T04:13:08.083Z,3.22
2022-08-06T04:15:48.272Z,2.20
2022-08-06T04:18:16.327Z,3.40
2022-08-06T04:20:46.147Z,2.55
2022-08-06T04:23:13.531Z,1.75
2022-08-06T04:25:45.822Z,1.85
2022-08-06T04:28:16.217Z,3.40
2022-08-06T04:30:47.335Z,3.35
2022-08-06T04:33:15.779Z,2.15
2022-08-06T04:36:05.000Z,3.42
2022-08-06T04:38:33.811Z,2.33
2022-08-06T04:41:03.295Z,2.78
2022-08-06T04:43:38.864Z,2.20
2022-08-06T04:46:20.126Z,3.30
2022-08-06T04:48:48.474Z,4.07
2022-08-06T04:52:45.461Z,3.38
2022-08-06T04:54:07.197Z,6.43
2022-08-06T04:56:48.426Z,2.90
2022-08-06T04:59:16.815Z,7.38
2022-08-06T05:01:57.045Z,5.78
2022-08-06T05:04:29.531Z,5.47
2022-08-06T05:06:58.640Z,5.78
2022-08-06T05:09:42.928Z,5.18
2022-08-06T05:12:16.828Z,5.22
2022-08-06T05:14:49.751Z,5.78
2022-08-06T05:17:18.227Z,6.28
2022-08-06T05:19:51.213Z,3.92
2022-08-06T05:22:39.000Z,4.43
2022-08-06T05:25:14.580Z,4.78
2022-08-06T05:28:03.506Z,4.85
2022-08-06T05:30:29.130Z,3.75
2022-08-06T05:32:56.719Z,3.90
2022-08-06T05:35:23.445Z,3.15
2022-08-06T05:38:07.843Z,4.20
2022-08-06T05:40:52.550Z,4.07
2022-08-06T05:43:22.661Z,3.80
2022-08-06T05:45:49.922Z,3.47
2022-08-06T05:48:18.144Z,2.85
2022-08-06T05:50:58.771Z,4.80
2022-08-06T05:54:02.707Z,2.70
2022-08-06T05:56:38.625Z,4.20
2022-08-06T05:59:06.100Z,6.85
2022-08-06T06:01:33.447Z,5.68
2022-08-06T06:04:02.898Z,3.80
2022-08-06T06:06:31.403Z,5.00
2022-08-06T06:09:01.941Z,5.57
2022-08-06T06:11:47.150Z,6.07
2022-08-06T06:14:36.131Z,5.95
2022-08-06T06:17:09.279Z,3.67
2022-08-06T06:19:39.103Z,5.03
2022-08-06T06:22:08.540Z,5.22
2022-08-06T06:24:38.260Z,3.33
2022-08-06T06:27:35.734Z,6.90
2022-08-06T06:30:06.214Z,2.83
2022-08-06T06:32:52.931Z,4.32
2022-08-06T06:35:34.596Z,4.05
2022-08-06T06:38:13.409Z,4.13
2022-08-06T06:41:00.510Z,6.35
2022-08-06T06:43:44.048Z,4.43
2022-08-06T06:46:40.849Z,3.92
2022-08-06T06:49:59.056Z,5.05
2022-08-06T06:52:10.499Z,5.30
2022-08-06T06:54:40.913Z,4.28
2022-08-06T06:57:10.274Z,3.92
2022-08-06T07:00:01.469Z,4.97
2022-08-06T07:02:27.901Z,4.55
2022-08-06T07:04:59.246Z,3.67
2022-08-06T07:07:26.198Z,2.75
2022-08-06T07:10:00.093Z,3.28
2022-08-06T07:12:31.502Z,2.50
2022-08-06T07:15:01.539Z,2.95
2022-08-06T07:17:44.852Z,2.30
2022-08-06T07:20:26.226Z,4.22
2022-08-06T07:24:07.450Z,4.03
2022-08-06T07:25:53.975Z,3.97
2022-08-06T07:28:28.382Z,3.67
2022-08-06T07:31:03.474Z,3.88
2022-08-06T07:33:59.491Z,4.40
2022-08-06T07:36:19.210Z,5.55
2022-08-06T07:38:47.037Z,3.03
2022-08-06T07:41:16.085Z,2.60
2022-08-06T07:43:59.036Z,8.18
2022-08-06T07:46:30.915Z,7.07
2022-08-06T07:49:00.179Z,4.40
2022-08-06T07:51:33.862Z,6.03
2022-08-06T07:54:06.981Z,4.47
2022-08-06T07:56:36.967Z,3.83
2022-08-06T07:59:03.888Z,5.50
2022-08-06T08:01:37.079Z,5.80
2022-08-06T08:04:34.883Z,5.78
2022-08-06T08:07:07.493Z,3.78
2022-08-06T08:10:02.295Z,3.88
2022-08-06T08:12:33.761Z,4.07
2022-08-06T08:15:02.843Z,3.45
2022-08-06T08:17:34.916Z,3.75
2022-08-06T08:20:15.024Z,4.40
2022-08-06T08:22:48.519Z,3.10
2022-08-06T08:25:16.891Z,5.85
2022-08-06T08:27:48.624Z,2.72
2022-08-06T08:30:15.545Z,3.88
2022-08-06T08:32:42.946Z,1.83
2022-08-06T08:35:16.451Z,5.13
2022-08-06T08:37:43.969Z,2.50
2022-08-06T08:40:10.575Z,4.07
2022-08-06T08:42:40.688Z,3.72
2022-08-06T08:45:13.536Z,3.25
2022-08-06T08:47:53.660Z,4.00
2022-08-06T08:50:28.979Z,1.88
2022-08-06T08:52:58.600Z,8.05
2022-08-06T08:57:10.614Z,6.05
2022-08-06T08:58:41.697Z,2.70
2022-08-06T09:00:59.719Z,4.80
2022-08-06T09:03:26.200Z,5.22
2022-08-06T09:05:53.482Z,4.20
2022-08-06T09:08:59.122Z,4.88
2022-08-06T09:11:12.153Z,4.53
2022-08-06T09:13:57.561Z,3.58
2022-08-06T09:16:31.614Z,4.15
2022-08-06T09:18:59.774Z,4.47
2022-08-06T09:21:26.384Z,2.55
2022-08-06T09:23:58.439Z,1.75
2022-08-06T09:26:52.462Z,2.55
2022-08-06T09:29:24.005Z,2.58
2022-08-06T09:31:58.611Z,1.83
2022-08-06T09:34:39.324Z,2.75
2022-08-06T09:37:08.727Z,3.67
2022-08-06T09:39:46.582Z,3.63
2022-08-06T09:42:43.109Z,4.68
2022-08-06T09:45:16.031Z,2.17
2022-08-06T09:47:57.799Z,4.50
2022-08-06T09:50:37.145Z,2.13
2022-08-06T09:53:13.154Z,3.20
2022-08-06T09:55:41.880Z,3.65
2022-08-06T09:58:08.366Z,2.70
2022-08-06T10:00:37.209Z,1.52
2022-08-06T10:04:03.396Z,1.92
2022-08-06T10:06:14.361Z,4.30
2022-08-06T10:08:41.994Z,1.85
2022-08-06T10:11:08.984Z,4.32
2022-08-06T10:13:43.779Z,2.85
2022-08-06T10:16:21.341Z,2.15
2022-08-06T10:18:56.882Z,0.80
2022-08-06T10:21:41.752Z,1.90
2022-08-06T10:24:12.208Z,2.92
2022-08-06T10:26:38.715Z,2.92
2022-08-06T10:29:11.416Z,1.83
2022-08-06T10:31:37.979Z,1.67
2022-08-06T10:34:11.633Z,1.58
2022-08-06T10:36:45.042Z,2.10
2022-08-06T10:40:03.003Z,2.55
2022-08-06T10:42:10.107Z,1.75
2022-08-06T10:44:45.953Z,3.42
2022-08-06T10:47:18.326Z,2.70
2022-08-06T10:50:25.369Z,3.05
2022-08-06T10:52:46.195Z,4.57
2022-08-06T10:55:12.704Z,3.05
2022-08-06T10:57:41.490Z,2.83
2022-08-06T11:00:12.311Z,2.10
2022-08-06T11:02:58.084Z,3.33
2022-08-06T11:05:27.897Z,2.05
2022-08-06T11:08:25.740Z,2.55
2022-08-06T11:11:19.223Z,3.67
2022-08-06T11:13:52.692Z,3.15
2022-08-06T11:16:29.259Z,4.50
2022-08-06T11:24:01.235Z,4.57
2022-08-06T11:27:01.712Z,3.08
2022-08-06T11:30:03.683Z,1.58
2022-08-06T11:33:03.747Z,2.40
2022-08-06T11:35:54.601Z,3.05
2022-08-06T11:38:44.554Z,2.20
2022-08-06T11:41:55.328Z,2.35
2022-08-06T11:44:16.233Z,1.77
2022-08-06T11:46:48.047Z,2.67
2022-08-06T11:49:18.242Z,1.77
2022-08-06T11:51:46.224Z,4.53
2022-08-06T11:54:15.511Z,2.15
2022-08-06T11:57:19.420Z,4.72
2022-08-06T11:59:53.209Z,2.95
2022-08-06T12:02:40.908Z,3.08
2022-08-06T12:05:17.458Z,2.40
2022-08-06T12:10:17.962Z,3.70
2022-08-06T12:12:55.978Z,6.45
2022-08-06T12:16:00.266Z,4.53
2022-08-06T12:18:20.883Z,10.77
2022-08-06T12:20:56.418Z,12.60
2022-08-06T12:23:54.204Z,9.80
2022-08-06T12:26:10.775Z,13.10
2022-08-06T12:28:37.698Z,17.23
2022-08-06T12:31:23.644Z,12.13
2022-08-06T12:33:51.976Z,13.05
2022-08-06T12:36:31.846Z,12.18
2022-08-06T12:39:00.641Z,12.65
2022-08-06T12:41:45.233Z,12.80
2022-08-06T12:44:14.902Z,13.07
2022-08-06T12:46:41.446Z,12.55
2022-08-06T12:49:10.651Z,14.02
2022-08-06T12:51:37.675Z,6.93
2022-08-06T12:54:06.308Z,14.82
2022-08-06T12:56:37.409Z,14.05
2022-08-06T12:59:05.744Z,11.73
2022-08-06T13:02:07.931Z,11.85
2022-08-06T13:04:21.519Z,11.20
2022-08-06T13:06:49.448Z,11.80
2022-08-06T13:09:16.743Z,8.65
2022-08-06T13:11:50.936Z,9.68
2022-08-06T13:14:18.868Z,6.20
2022-08-06T13:16:54.523Z,9.80
2022-08-06T13:19:28.182Z,9.30
2022-08-06T13:22:00.531Z,9.73
2022-08-06T13:24:30.577Z,7.65
2022-08-06T13:26:59.739Z,7.88
2022-08-06T13:30:31.966Z,7.88
2022-08-06T13:32:28.213Z,10.85
2022-08-06T13:35:01.275Z,10.32
2022-08-06T13:37:56.604Z,7.97
2022-08-06T13:40:46.273Z,7.78
2022-08-06T13:43:38.350Z,6.35
2022-08-06T13:46:20.591Z,7.25
2022-08-06T13:48:55.605Z,7.47
2022-08-06T13:51:27.573Z,5.38
2022-08-06T13:53:57.173Z,5.85
2022-08-06T13:56:28.553Z,6.78
2022-08-06T13:58:57.540Z,6.57
2022-08-06T14:01:23.902Z,7.70
2022-08-06T14:03:50.709Z,6.65
2022-08-06T14:06:17.315Z,7.05
2022-08-06T14:08:44.365Z,6.15
2022-08-06T14:11:14.003Z,6.63
2022-08-06T14:13:42.152Z,7.70
2022-08-06T14:16:08.762Z,5.85
2022-08-06T14:18:39.686Z,3.35
2022-08-06T14:21:09.394Z,12.02
2022-08-06T14:24:00.912Z,11.60
2022-08-06T14:26:27.839Z,9.82
2022-08-06T14:30:27.372Z,8.20
2022-08-06T14:31:53.951Z,11.60
2022-08-06T14:34:35.253Z,6.88
2022-08-06T14:37:03.806Z,8.20
2022-08-06T14:39:59.279Z,16.67
2022-08-06T14:42:47.511Z,10.50
2022-08-06T14:45:14.935Z,7.13
2022-08-06T14:47:57.799Z,5.95
2022-08-06T14:50:37.744Z,7.15
2022-08-06T14:53:04.861Z,6.75
2022-08-06T14:55:32.988Z,7.20
2022-08-06T14:58:04.691Z,14.25
2022-08-06T15:00:37.807Z,12.13
2022-08-06T15:03:13.670Z,10.98
2022-08-06T15:06:05.261Z,15.23
2022-08-06T15:08:28.268Z,7.20
2022-08-06T15:10:56.397Z,7.75
2022-08-06T15:13:36.376Z,7.28
2022-08-06T15:16:03.790Z,5.20
2022-08-06T15:18:54.030Z,7.43
2022-08-06T15:21:16.619Z,7.72
2022-08-06T15:23:53.529Z,17.08
2022-08-06T15:26:46.319Z,7.18
2022-08-06T15:29:10.866Z,5.32
2022-08-06T15:31:41.988Z,6.75
2022-08-06T15:34:08.610Z,11.55
2022-08-06T15:36:39.904Z,6.50
2022-08-06T15:39:52.488Z,3.40
2022-08-06T15:42:12.747Z,8.35
2022-08-06T15:44:41.396Z,6.70
2022-08-06T15:47:08.288Z,7.68
2022-08-06T15:50:03.470Z,6.57
2022-08-06T15:52:22.937Z,6.05
2022-08-06T15:54:52.905Z,4.22
2022-08-06T15:58:05.394Z,7.38
2022-08-06T16:00:17.580Z,7.95
2022-08-06T16:02:49.990Z,6.03
2022-08-06T16:05:32.237Z,6.32
2022-08-06T16:08:04.520Z,7.35
2022-08-06T16:10:33.399Z,5.85
2022-08-06T16:13:00.129Z,6.95
2022-08-06T16:15:26.618Z,6.22
2022-08-06T16:18:09.358Z,10.18
2022-08-06T16:20:44.123Z,4.38
2022-08-06T16:23:11.927Z,5.55
2022-08-06T16:26:15.284Z,6.07
2022-08-06T16:28:48.685Z,4.10
2022-08-06T16:31:16.141Z,4.95
2022-08-06T16:33:53.786Z,4.78
2022-08-06T16:36:32.591Z,7.07
2022-08-06T16:39:13.610Z,5.35
2022-08-06T16:42:00.175Z,4.93
2022-08-06T16:47:13.423Z,6.70
2022-08-06T16:50:17.670Z,5.30
2022-08-06T16:55:15.465Z,7.05
2022-08-06T16:57:49.921Z,4.68
2022-08-06T17:00:59.947Z,9.13
2022-08-06T17:03:13.438Z,5.43
2022-08-06T17:05:46.109Z,8.25
2022-08-06T17:08:17.150Z,8.10
2022-08-06T17:13:38.290Z,7.00
2022-08-06T17:16:06.612Z,8.80
2022-08-06T17:18:39.084Z,8.73
2022-08-06T17:23:51.966Z,9.27
2022-08-06T17:26:34.293Z,8.82
2022-08-06T17:29:01.594Z,7.40
2022-08-06T17:31:55.101Z,7.45
2022-08-06T17:34:29.306Z,8.88
2022-08-06T17:36:57.409Z,7.55
2022-08-06T17:39:38.624Z,4.60
2022-08-06T17:42:12.012Z,5.38
2022-08-06T17:44:45.669Z,4.68
2022-08-06T17:47:12.306Z,3.75
2022-08-06T17:49:43.545Z,4.50
2022-08-06T17:52:12.111Z,4.90
2022-08-06T17:54:46.978Z,3.17
2022-08-06T17:58:34.004Z,2.58
2022-08-06T18:00:13.284Z,3.97
2022-08-06T18:03:14.254Z,3.42
2022-08-06T18:05:53.651Z,5.63
2022-08-06T18:08:35.932Z,25.25
2022-08-06T18:11:02.641Z,23.77
2022-08-06T18:13:53.052Z,26.13
2022-08-06T18:16:17.974Z,30.52
2022-08-06T18:18:48.716Z,36.30
2022-08-06T18:21:24.647Z,28.73
2022-08-06T18:23:56.081Z,44.45
2022-08-06T18:26:30.883Z,30.80
2022-08-06T18:28:59.808Z,35.47
2022-08-06T18:31:59.488Z,33.70
2022-08-06T18:36:43.828Z,28.33
2022-08-06T18:39:14.595Z,22.88
2022-08-06T18:41:56.481Z,25.40
2022-08-06T18:44:27.185Z,31.58
2022-08-06T18:46:56.466Z,32.90
2022-08-06T18:49:39.489Z,32.65
2022-08-06T18:54:56.285Z,27.95
2022-08-06T18:57:28.135Z,45.25
2022-08-06T18:59:55.907Z,31.42
2022-08-06T19:02:26.735Z,51.30
2022-08-06T19:04:54.354Z,68.72
2022-08-06T19:07:26.915Z,64.78
2022-08-06T19:10:14.867Z,56.40
2022-08-06T19:12:42.871Z,50.53
2022-08-06T19:15:11.821Z,41.83
2022-08-06T19:18:09.939Z,43.70
2022-08-06T19:20:30.525Z,61.75
2022-08-06T19:23:02.738Z,64.45
2022-08-06T19:25:52.908Z,62.03
2022-08-06T19:28:36.116Z,52.47
2022-08-06T19:31:11.205Z,57.65
2022-08-06T19:33:38.320Z,72.28
2022-08-06T19:36:30.848Z,60.63
2022-08-06T19:38:53.479Z,50.08
2022-08-06T19:41:55.487Z,66.47
2022-08-06T19:44:28.259Z,51.90
2022-08-06T19:46:56.603Z,36.85
2022-08-06T19:49:23.342Z,48.53
2022-08-06T19:52:02.773Z,40.05
2022-08-06T19:54:36.115Z,36.15
2022-08-06T19:57:03.756Z,34.67
2022-08-06T20:00:51.252Z,33.08
2022-08-06T20:02:21.117Z,27.27
2022-08-06T20:04:52.983Z,35.35
2022-08-06T20:07:34.203Z,24.90
2022-08-06T20:10:03.161Z,33.50
2022-08-06T20:12:34.346Z,24.23
2022-08-06T20:15:05.393Z,18.02
2022-08-06T20:17:46.020Z,13.70
2022-08-06T20:20:17.232Z,19.20
2022-08-06T20:22:44.977Z,23.15
2022-08-06T20:25:18.858Z,19.90
2022-08-06T20:29:08.295Z,17.15
2022-08-06T20:30:37.088Z,20.58
2022-08-06T20:33:11.130Z,17.15
2022-08-06T20:35:37.877Z,21.25
2022-08-06T20:38:07.189Z,19.80
2022-08-06T20:40:37.364Z,19.92
2022-08-06T20:44:06.242Z,14.43
2022-08-06T20:46:07.765Z,17.65
2022-08-06T20:48:37.885Z,15.48
2022-08-06T20:51:05.043Z,13.25
2022-08-06T20:53:33.114Z,12.63
2022-08-06T20:56:03.099Z,13.07
2022-08-06T20:58:32.591Z,15.30
2022-08-06T21:00:59.847Z,12.88
2022-08-06T21:05:11.203Z,10.85
2022-08-06T21:08:39.155Z,10.05
2022-08-06T21:11:14.876Z,9.20
2022-08-06T21:13:59.577Z,11.23
2022-08-06T21:19:00.789Z,9.02
2022-08-06T21:21:27.251Z,7.85
2022-08-06T21:23:58.468Z,8.73
2022-08-06T21:26:34.330Z,8.32
2022-08-06T21:30:08.382Z,9.27
2022-08-06T21:31:53.142Z,8.75
2022-08-06T21:34:20.223Z,8.98
2022-08-06T21:36:46.880Z,8.55
2022-08-06T21:39:16.266Z,7.88
2022-08-06T21:41:55.854Z,9.27
2022-08-06T21:44:27.818Z,5.47
2022-08-06T21:46:58.766Z,6.60
2022-08-06T21:49:58.852Z,7.90
2022-08-06T21:52:16.091Z,8.77
2022-08-06T21:54:46.722Z,9.02
2022-08-06T21:57:17.185Z,8.23
2022-08-06T21:59:52.276Z,7.53
2022-08-06T22:02:21.732Z,7.20
2022-08-06T22:05:00.192Z,6.38
2022-08-06T22:08:05.647Z,6.78
2022-08-06T22:10:14.472Z,8.45
2022-08-06T22:13:12.811Z,5.85
2022-08-06T22:15:34.214Z,7.47
2022-08-06T22:18:16.910Z,7.55
2022-08-06T22:20:45.263Z,7.93
2022-08-06T22:23:11.739Z,5.57
2022-08-06T22:25:38.353Z,5.03
2022-08-06T22:28:05.144Z,7.00
2022-08-06T22:30:36.882Z,5.15
2022-08-06T22:33:10.313Z,5.47
2022-08-06T22:35:38.787Z,7.93
2022-08-06T22:38:24.390Z,3.42
2022-08-06T22:40:51.788Z,6.38
2022-08-06T22:43:22.689Z,4.57
2022-08-06T22:46:02.921Z,3.42
2022-08-06T22:48:36.350Z,5.35
2022-08-06T22:51:10.512Z,7.75
2022-08-06T22:54:28.878Z,4.28
2022-08-06T22:56:28.568Z,3.88
2022-08-06T22:59:04.819Z,5.32
2022-08-06T23:02:06.894Z,6.22
2022-08-06T23:06:55.785Z,4.70
2022-08-06T23:09:22.267Z,5.00
2022-08-06T23:11:58.881Z,6.22
2022-08-06T23:14:27.281Z,3.72
2022-08-06T23:16:58.901Z,5.57
2022-08-06T23:19:26.060Z,4.40
2022-08-06T23:22:04.949Z,4.50
2022-08-06T23:24:36.075Z,4.07
2022-08-06T23:27:03.727Z,4.07
2022-08-06T23:29:34.885Z,3.28
2022-08-06T23:32:08.254Z,3.83
2022-08-06T23:34:36.160Z,3.05
2022-08-06T23:37:10.709Z,5.47
2022-08-06T23:39:38.297Z,3.45
2022-08-06T23:42:08.598Z,4.50
2022-08-06T23:44:42.536Z,4.00
2022-08-06T23:47:55.610Z,2.60
2022-08-06T23:50:01.757Z,6.03
2022-08-06T23:52:29.720Z,5.53
2022-08-06T23:54:59.559Z,3.67
2022-08-06T23:57:32.721Z,4.18
